AFR137 WADL-WADS
Flight info
| Callsign | AFR137 |
|---|---|
| Flight time | 0h 24m |
| Altitude | 15000 |
| Route | LMB W42 MUBOT |
| Aircraft | B736/M-VGDW/C |
Departure
| Time | 2026-04-14 11:34 |
|---|---|
| Airport | Lombok International Airport (WADL) |
Arrival
| Time | 2026-04-14 11:58 |
|---|---|
| Airport | Sultan Muhammad Kaharuddin III Airport (WADS) |
| Time | Latitude | Longitude | Altitude | Speed | Heading |
|---|---|---|---|---|---|
| 2026-04-14 11:25 | -8.76030 | 116.27328 | 327 ft | 0 kts | 219° |
| 2026-04-14 11:27 | -8.76027 | 116.27330 | 332 ft | 1 kts | 222° |
| 2026-04-14 11:27 | -8.76023 | 116.27334 | 329 ft | 1 kts | 232° |
| 2026-04-14 11:27 | -8.76020 | 116.27338 | 329 ft | 1 kts | 243° |
| 2026-04-14 11:28 | -8.76018 | 116.27343 | 330 ft | 1 kts | 253° |
| 2026-04-14 11:28 | -8.76017 | 116.27349 | 329 ft | 1 kts | 263° |
| 2026-04-14 11:28 | -8.76016 | 116.27354 | 330 ft | 1 kts | 274° |
| 2026-04-14 11:28 | -8.76017 | 116.27359 | 331 ft | 1 kts | 284° |
| 2026-04-14 11:29 | -8.76018 | 116.27364 | 331 ft | 1 kts | 294° |
| 2026-04-14 11:29 | -8.76020 | 116.27369 | 331 ft | 0 kts | 303° |
| 2026-04-14 11:30 | -8.76000 | 116.27345 | 331 ft | 12 kts | 323° |
| 2026-04-14 11:31 | -8.75895 | 116.27303 | 330 ft | 19 kts | 4° |
| 2026-04-14 11:31 | -8.75778 | 116.27320 | 330 ft | 18 kts | 321° |
| 2026-04-14 11:31 | -8.75689 | 116.27211 | 327 ft | 28 kts | 309° |
| 2026-04-14 11:31 | -8.75560 | 116.27050 | 323 ft | 29 kts | 309° |
| 2026-04-14 11:32 | -8.75436 | 116.26895 | 322 ft | 27 kts | 309° |
| 2026-04-14 11:32 | -8.75320 | 116.26750 | 318 ft | 26 kts | 308° |
| 2026-04-14 11:32 | -8.75213 | 116.26615 | 316 ft | 24 kts | 309° |
| 2026-04-14 11:32 | -8.75111 | 116.26490 | 313 ft | 23 kts | 317° |
| 2026-04-14 11:33 | -8.74983 | 116.26529 | 312 ft | 22 kts | 39° |
| 2026-04-14 11:33 | -8.75012 | 116.26657 | 313 ft | 27 kts | 130° |
| 2026-04-14 11:33 | -8.75369 | 116.27099 | 324 ft | 133 kts | 129° |
| 2026-04-14 11:34 | -8.76744 | 116.29319 | 1710 ft | 212 kts | 102° |
| 2026-04-14 11:34 | -8.76929 | 116.30865 | 2785 ft | 233 kts | 89° |
| 2026-04-14 11:34 | -8.76597 | 116.32492 | 3973 ft | 238 kts | 69° |
| 2026-04-14 11:34 | -8.76053 | 116.34077 | 5083 ft | 240 kts | 73° |
| 2026-04-14 11:35 | -8.75587 | 116.35722 | 5815 ft | 243 kts | 75° |
| 2026-04-14 11:35 | -8.75144 | 116.37374 | 6444 ft | 248 kts | 75° |
| 2026-04-14 11:35 | -8.74691 | 116.39074 | 7044 ft | 254 kts | 76° |
| 2026-04-14 11:35 | -8.74233 | 116.40802 | 7758 ft | 255 kts | 76° |
| 2026-04-14 11:36 | -8.73770 | 116.42556 | 8405 ft | 260 kts | 76° |
| 2026-04-14 11:36 | -8.73300 | 116.44332 | 9125 ft | 263 kts | 76° |
| 2026-04-14 11:36 | -8.72832 | 116.46102 | 9853 ft | 266 kts | 76° |
| 2026-04-14 11:36 | -8.72344 | 116.47949 | 10420 ft | 278 kts | 76° |
| 2026-04-14 11:37 | -8.72000 | 116.49251 | 10556 ft | 299 kts | 76° |
| 2026-04-14 11:37 | -8.71436 | 116.51388 | 10770 ft | 330 kts | 76° |
| 2026-04-14 11:37 | -8.70814 | 116.53744 | 11098 ft | 353 kts | 76° |
| 2026-04-14 11:37 | -8.70175 | 116.56160 | 11770 ft | 362 kts | 75° |
| 2026-04-14 11:38 | -8.69518 | 116.58634 | 12439 ft | 370 kts | 75° |
| 2026-04-14 11:38 | -8.68828 | 116.61240 | 12296 ft | 396 kts | 75° |
| 2026-04-14 11:38 | -8.68099 | 116.63988 | 12243 ft | 405 kts | 75° |
| 2026-04-14 11:38 | -8.67371 | 116.66730 | 12195 ft | 405 kts | 75° |
| 2026-04-14 11:39 | -8.66643 | 116.69476 | 12169 ft | 403 kts | 75° |
| 2026-04-14 11:39 | -8.65920 | 116.72196 | 12164 ft | 402 kts | 76° |
| 2026-04-14 11:39 | -8.65208 | 116.74878 | 12148 ft | 391 kts | 75° |
| 2026-04-14 11:39 | -8.64521 | 116.77464 | 12171 ft | 369 kts | 76° |
| 2026-04-14 11:40 | -8.63868 | 116.79923 | 12227 ft | 355 kts | 76° |
| 2026-04-14 11:40 | -8.63216 | 116.82380 | 12334 ft | 376 kts | 75° |
| 2026-04-14 11:40 | -8.62522 | 116.84999 | 12411 ft | 390 kts | 75° |
| 2026-04-14 11:40 | -8.61835 | 116.87588 | 12440 ft | 374 kts | 76° |
| 2026-04-14 11:41 | -8.61158 | 116.90141 | 12925 ft | 377 kts | 75° |
| 2026-04-14 11:41 | -8.60475 | 116.92714 | 13333 ft | 387 kts | 75° |
| 2026-04-14 11:41 | -8.59773 | 116.95352 | 13715 ft | 396 kts | 75° |
| 2026-04-14 11:41 | -8.59045 | 116.98087 | 14060 ft | 402 kts | 75° |
| 2026-04-14 11:42 | -8.58322 | 117.00804 | 14395 ft | 405 kts | 75° |
| 2026-04-14 11:42 | -8.57589 | 117.03558 | 14744 ft | 407 kts | 76° |
| 2026-04-14 11:42 | -8.56853 | 117.06322 | 14923 ft | 410 kts | 76° |
| 2026-04-14 11:42 | -8.56095 | 117.09162 | 14926 ft | 414 kts | 75° |
| 2026-04-14 11:43 | -8.55337 | 117.11931 | 14735 ft | 413 kts | 75° |
| 2026-04-14 11:43 | -8.54567 | 117.14705 | 14342 ft | 402 kts | 75° |
| 2026-04-14 11:43 | -8.53815 | 117.17400 | 13741 ft | 395 kts | 75° |
| 2026-04-14 11:43 | -8.53077 | 117.20049 | 13095 ft | 389 kts | 75° |
| 2026-04-14 11:44 | -8.52351 | 117.22663 | 12447 ft | 383 kts | 75° |
| 2026-04-14 11:44 | -8.51648 | 117.25199 | 11835 ft | 377 kts | 75° |
| 2026-04-14 11:44 | -8.50941 | 117.27755 | 11213 ft | 372 kts | 75° |
| 2026-04-14 11:44 | -8.50249 | 117.30252 | 10769 ft | 363 kts | 75° |
| 2026-04-14 11:45 | -8.49581 | 117.32659 | 10616 ft | 346 kts | 75° |
| 2026-04-14 11:45 | -8.49005 | 117.34936 | 10516 ft | 329 kts | 80° |
| 2026-04-14 11:45 | -8.48312 | 117.37090 | 10490 ft | 313 kts | 60° |
| 2026-04-14 11:45 | -8.46927 | 117.38664 | 10482 ft | 300 kts | 38° |
| 2026-04-14 11:46 | -8.45173 | 117.39745 | 10440 ft | 287 kts | 26° |
| 2026-04-14 11:46 | -8.43256 | 117.40166 | 10374 ft | 278 kts | 359° |
| 2026-04-14 11:46 | -8.41428 | 117.39813 | 10373 ft | 263 kts | 345° |
| 2026-04-14 11:46 | -8.39744 | 117.39305 | 10327 ft | 245 kts | 344° |
| 2026-04-14 11:47 | -8.38167 | 117.38808 | 10201 ft | 237 kts | 344° |
| 2026-04-14 11:47 | -8.36559 | 117.38296 | 9811 ft | 242 kts | 344° |
| 2026-04-14 11:47 | -8.35112 | 117.37831 | 9358 ft | 244 kts | 343° |
| 2026-04-14 11:47 | -8.33483 | 117.37308 | 8856 ft | 245 kts | 343° |
| 2026-04-14 11:48 | -8.31880 | 117.36794 | 8376 ft | 246 kts | 343° |
| 2026-04-14 11:48 | -8.30247 | 117.36230 | 7882 ft | 247 kts | 337° |
| 2026-04-14 11:48 | -8.28734 | 117.35427 | 7423 ft | 248 kts | 331° |
| 2026-04-14 11:48 | -8.27218 | 117.34550 | 6943 ft | 248 kts | 331° |
| 2026-04-14 11:49 | -8.25738 | 117.33688 | 6489 ft | 249 kts | 330° |
| 2026-04-14 11:49 | -8.24242 | 117.32813 | 6003 ft | 249 kts | 331° |
| 2026-04-14 11:49 | -8.22755 | 117.31917 | 5516 ft | 249 kts | 327° |
| 2026-04-14 11:49 | -8.21389 | 117.30853 | 5040 ft | 249 kts | 321° |
| 2026-04-14 11:50 | -8.20093 | 117.29678 | 4539 ft | 249 kts | 308° |
| 2026-04-14 11:50 | -8.19424 | 117.28101 | 4146 ft | 244 kts | 276° |
| 2026-04-14 11:50 | -8.19655 | 117.26473 | 3871 ft | 231 kts | 243° |
| 2026-04-14 11:51 | -8.21998 | 117.24793 | 3403 ft | 204 kts | 192° |
| 2026-04-14 11:51 | -8.23372 | 117.24447 | 3151 ft | 199 kts | 191° |
| 2026-04-14 11:51 | -8.24699 | 117.24120 | 2949 ft | 198 kts | 191° |
| 2026-04-14 11:51 | -8.26044 | 117.23794 | 2779 ft | 199 kts | 190° |
| 2026-04-14 11:52 | -8.27391 | 117.23471 | 2610 ft | 200 kts | 191° |
| 2026-04-14 11:52 | -8.28752 | 117.23207 | 2432 ft | 197 kts | 176° |
| 2026-04-14 11:52 | -8.30001 | 117.23641 | 2249 ft | 192 kts | 139° |
| 2026-04-14 11:52 | -8.30903 | 117.24612 | 2106 ft | 192 kts | 129° |
| 2026-04-14 11:53 | -8.31775 | 117.25663 | 1946 ft | 192 kts | 129° |
| 2026-04-14 11:53 | -8.32652 | 117.26668 | 1765 ft | 189 kts | 131° |
| 2026-04-14 11:53 | -8.33536 | 117.27642 | 1669 ft | 188 kts | 131° |
| 2026-04-14 11:53 | -8.34406 | 117.28594 | 1567 ft | 186 kts | 132° |
| 2026-04-14 11:54 | -8.35312 | 117.29531 | 1466 ft | 187 kts | 133° |
| 2026-04-14 11:54 | -8.36211 | 117.30445 | 1360 ft | 179 kts | 134° |
| 2026-04-14 11:54 | -8.37070 | 117.31312 | 1264 ft | 162 kts | 134° |
| 2026-04-14 11:54 | -8.37843 | 117.32007 | 1173 ft | 143 kts | 142° |
| 2026-04-14 11:55 | -8.38619 | 117.32598 | 1097 ft | 137 kts | 141° |
| 2026-04-14 11:55 | -8.39352 | 117.33222 | 1014 ft | 140 kts | 138° |
| 2026-04-14 11:55 | -8.40088 | 117.33867 | 930 ft | 141 kts | 138° |
| 2026-04-14 11:55 | -8.40833 | 117.34508 | 829 ft | 139 kts | 138° |
| 2026-04-14 11:56 | -8.41591 | 117.35132 | 776 ft | 142 kts | 138° |
| 2026-04-14 11:56 | -8.42363 | 117.35769 | 659 ft | 143 kts | 139° |
| 2026-04-14 11:56 | -8.43124 | 117.36404 | 586 ft | 140 kts | 139° |
| 2026-04-14 11:56 | -8.43857 | 117.37027 | 601 ft | 142 kts | 139° |
| 2026-04-14 11:57 | -8.44607 | 117.37658 | 576 ft | 137 kts | 139° |
| 2026-04-14 11:57 | -8.45349 | 117.38293 | 617 ft | 142 kts | 138° |
| 2026-04-14 11:57 | -8.46118 | 117.38946 | 594 ft | 144 kts | 140° |
| 2026-04-14 11:57 | -8.46897 | 117.39587 | 464 ft | 144 kts | 140° |
| 2026-04-14 11:58 | -8.47647 | 117.40200 | 233 ft | 137 kts | 139° |
| 2026-04-14 11:58 | -8.48403 | 117.40818 | 20 ft | 136 kts | 140° |
| 2026-04-14 11:58 | -8.48855 | 117.41194 | 29 ft | 44 kts | 140° |
| 2026-04-14 11:58 | -8.48957 | 117.41319 | 28 ft | 18 kts | 63° |
| 2026-04-14 11:59 | -8.48925 | 117.41379 | 28 ft | 5 kts | 112° |
| 2026-04-14 11:59 | -8.48924 | 117.41396 | 29 ft | 2 kts | 60° |
| 2026-04-14 11:59 | -8.48921 | 117.41401 | 29 ft | 0 kts | 54° |